Cosmin + Cosmina 1 — YP2605 — position and weather

sailwx.info

Track history (hours):
 
Tides and Currents Weather Stations Pressure Air Temp Water Temp Dewpoint Dewpoint Depression Visibility Wind Speed Wind Dir Waves Ship Positions

Cosmin + Cosmina 1

Last reported at 2018-Mar-30 23:12 UTC. Time now 2018-Jul-22 08:31 UTC.
Position N 44°18' E 028°03'.
Warning: this ship's position is months out of date.

Length 82 m; draft 1.4 m.

MMSI: 264162605.

Date/timePositionNaut miles runAvg speedWind from/ knotsBaromVisibWave heightAir tempDewpointWater temp
2018-Mar-30 23:12N 44°18' E 028°03'0 0.0
2018-Mar-30 18:20N 44°18' E 028°03'2 4.6
2018-Mar-30 17:58N 44°17' E 028°05'2 5.2
2018-Mar-30 17:30N 44°16' E 028°08'3 5.2
2018-Mar-30 17:00N 44°16' E 028°11'3 5.3
2018-Mar-30 16:29N 44°15' E 028°15'3 5.3
2018-Mar-30 16:00N 44°15' E 028°19'3 5.0
2018-Mar-30 15:30N 44°14' E 028°22'3 5.2
2018-Mar-30 14:59N 44°12' E 028°24'3 5.3
2018-Mar-30 14:27N 44°09' E 028°26'5 4.7
2018-Mar-30 13:28N 44°06' E 028°30'2 5.2
2018-Mar-30 13:00N 44°06' E 028°34'2 4.9
2018-Mar-30 12:30N 44°06' E 028°37'0 0.3
2018-Mar-30 12:00N 44°06' E 028°37'1 2.5
2018-Mar-30 11:30N 44°07' E 028°39'1 1.5
2018-Mar-30 11:00N 44°07' E 028°39'0 0.0
2018-Mar-30 10:30N 44°07' E 028°39'0 0.0
2018-Mar-30 10:00N 44°07' E 028°39'0 0.0
2018-Mar-30 09:30N 44°07' E 028°39'0 0.0
2018-Mar-30 09:00N 44°07' E 028°39'0 0.0
2018-Mar-30 08:30N 44°07' E 028°39'0 0.6
2018-Mar-30 08:00N 44°07' E 028°39'0 0.2
2018-Mar-30 07:30N 44°07' E 028°39'0 0.0
2018-Mar-30 07:00N 44°07' E 028°39'0 0.0
2018-Mar-30 06:30N 44°07' E 028°39'0 0.0
2018-Mar-30 06:00N 44°07' E 028°39'0 0.0
2018-Mar-30 05:30N 44°07' E 028°39'0 0.0
2018-Mar-30 05:00N 44°07' E 028°39'0 0.0
2018-Mar-30 04:30N 44°07' E 028°39'0 0.0
2018-Mar-30 04:00N 44°07' E 028°39'0 0.0
2018-Mar-30 03:30N 44°07' E 028°39'0 0.0
2018-Mar-30 03:00N 44°07' E 028°39'0 0.0
2018-Mar-30 02:30N 44°07' E 028°39'0 0.0
2018-Mar-30 02:00N 44°07' E 028°39'0 0.0
2018-Mar-30 01:30N 44°07' E 028°39'0 0.0
2018-Mar-30 01:00N 44°07' E 028°39'0 0.0
2018-Mar-30 00:30N 44°07' E 028°39'0 0.0
2018-Mar-30 00:00N 44°07' E 028°39'0 0.0
2018-Mar-29 23:30N 44°07' E 028°39'0 0.0
2018-Mar-29 23:00N 44°07' E 028°39'0 0.0
2018-Mar-29 22:30N 44°07' E 028°39'0 0.0
2018-Mar-29 22:00N 44°07' E 028°39'0 0.0
2018-Mar-29 21:30N 44°07' E 028°39'0 0.0
2018-Mar-29 21:00N 44°07' E 028°39'0 0.0
2018-Mar-29 20:30N 44°07' E 028°39'0 0.0
2018-Mar-29 20:00N 44°07' E 028°39'0 0.0
2018-Mar-29 19:30N 44°07' E 028°39'0 0.0
2018-Mar-29 19:00N 44°07' E 028°39'0 0.0
2018-Mar-29 18:30N 44°07' E 028°39'0 0.0
2018-Mar-29 18:00N 44°07' E 028°39'0 0.0
2018-Mar-29 17:30N 44°07' E 028°39'0 0.0
2018-Mar-29 17:00N 44°07' E 028°39'0 0.0
2018-Mar-29 16:30N 44°07' E 028°39'0 0.0
2018-Mar-29 16:00N 44°07' E 028°39'0 0.0
2018-Mar-29 15:30N 44°07' E 028°39'0 0.0
2018-Mar-29 15:00N 44°07' E 028°39'0 0.0
2018-Mar-29 14:30N 44°07' E 028°39'0 0.0
2018-Mar-29 14:00N 44°07' E 028°39'0 0.0
2018-Mar-29 13:30N 44°07' E 028°39'0 0.0
2018-Mar-29 13:00N 44°07' E 028°39'0 0.0
2018-Mar-29 12:30N 44°07' E 028°39'0 0.0
2018-Mar-29 12:00N 44°07' E 028°39'0 0.0
2018-Mar-29 11:30N 44°07' E 028°39'0 0.0
2018-Mar-29 11:00N 44°07' E 028°39'0 0.0
2018-Mar-29 10:30N 44°07' E 028°39'0 0.0
2018-Mar-29 10:00N 44°07' E 028°39'0 0.0
2018-Mar-29 09:30N 44°07' E 028°39'0 0.0
2018-Mar-29 09:00N 44°07' E 028°39'0 0.0
2018-Mar-29 08:30N 44°07' E 028°39'0 0.0
2018-Mar-29 08:00N 44°07' E 028°39'0 0.0
2018-Mar-29 07:30N 44°07' E 028°39'0 0.0
2018-Mar-29 07:00N 44°07' E 028°39'0 0.0
2018-Mar-29 06:30N 44°07' E 028°39'0 0.0
2018-Mar-29 06:00N 44°07' E 028°39'0 0.0
2018-Mar-29 05:30N 44°07' E 028°39'0 0.0
2018-Mar-29 05:00N 44°07' E 028°39'0 0.0
2018-Mar-29 04:30N 44°07' E 028°39'0 0.0
2018-Mar-29 04:00N 44°07' E 028°39'0 0.0
2018-Mar-29 03:30N 44°07' E 028°39'0 0.0
2018-Mar-29 03:00N 44°07' E 028°39'0 0.0
2018-Mar-29 02:30N 44°07' E 028°39'0 0.0
2018-Mar-29 02:00N 44°07' E 028°39'0 0.0
2018-Mar-29 01:30N 44°07' E 028°39'0 0.0
2018-Mar-29 01:00N 44°07' E 028°39'0 0.0
2018-Mar-29 00:30N 44°07' E 028°39'0 0.0
2018-Mar-29 00:00N 44°07' E 028°39'0 0.0
2018-Mar-28 23:30N 44°07' E 028°39'0 0.0
2018-Mar-28 23:00N 44°07' E 028°39'0 0.0
2018-Mar-28 22:30N 44°07' E 028°39'0 0.0
2018-Mar-28 22:00N 44°07' E 028°39'0 0.0
2018-Mar-28 21:30N 44°07' E 028°39'0 0.0
2018-Mar-28 21:00N 44°07' E 028°39'0 0.0
2018-Mar-28 20:30N 44°07' E 028°39'0 0.0
2018-Mar-28 20:00N 44°07' E 028°39'0 0.0
2018-Mar-28 19:30N 44°07' E 028°39'0 0.0
2018-Mar-28 19:00N 44°07' E 028°39'0 0.0
2018-Mar-28 18:30N 44°07' E 028°39'0 0.0
2018-Mar-28 18:00N 44°07' E 028°39'0 0.0
2018-Mar-28 17:30N 44°07' E 028°39'0 0.0
2018-Mar-28 17:00N 44°07' E 028°39'0 0.0
2018-Mar-28 16:29N 44°07' E 028°39'0 0.0
2018-Mar-28 16:00N 44°07' E 028°39'0 0.0
2018-Mar-28 15:30N 44°07' E 028°39'0 0.0
2018-Mar-28 15:00N 44°07' E 028°39'0 0.0
2018-Mar-28 14:29N 44°07' E 028°39'0 0.0
2018-Mar-28 14:00N 44°07' E 028°39'0 0.0
2018-Mar-28 13:30N 44°07' E 028°39'0 0.0
2018-Mar-28 13:00N 44°07' E 028°39'0 0.0
2018-Mar-28 12:30N 44°07' E 028°39'0 0.0
2018-Mar-28 12:00N 44°07' E 028°39'0 0.0
2018-Mar-28 11:30N 44°07' E 028°39'0 0.0
2018-Mar-28 11:00N 44°07' E 028°39'0 0.0
2018-Mar-28 10:30N 44°07' E 028°39'0 0.0
2018-Mar-28 10:00N 44°07' E 028°39'0 0.0
2018-Mar-28 09:30N 44°07' E 028°39'0 0.0
2018-Mar-28 09:00N 44°07' E 028°39'0 0.0
2018-Mar-28 08:30N 44°07' E 028°39'0 0.0
2018-Mar-28 08:00N 44°07' E 028°39'0 0.0
2018-Mar-28 07:30N 44°07' E 028°39'0 0.0
2018-Mar-28 07:00N 44°07' E 028°39'0 0.0
2018-Mar-28 06:29N 44°07' E 028°39'0 0.0
2018-Mar-28 06:00N 44°07' E 028°39'0 0.0
2018-Mar-28 05:30N 44°07' E 028°39'0 0.0
2018-Mar-28 05:00N 44°07' E 028°39'0 0.0
2018-Mar-28 04:30N 44°07' E 028°39'0 0.0
2018-Mar-28 04:00N 44°07' E 028°39'0 0.0
2018-Mar-28 03:30N 44°07' E 028°39'0 0.0
2018-Mar-28 03:00N 44°07' E 028°39'0 0.0
2018-Mar-28 02:30N 44°07' E 028°39'0 0.0
2018-Mar-28 02:00N 44°07' E 028°39'0 0.0
2018-Mar-28 01:30N 44°07' E 028°39'0 0.0
2018-Mar-28 01:00N 44°07' E 028°39'0 0.0
2018-Mar-28 00:30N 44°07' E 028°39'0 0.0
2018-Mar-28 00:00N 44°07' E 028°39'0 0.0
2018-Mar-27 23:30N 44°07' E 028°39'0 0.0
2018-Mar-27 23:00N 44°07' E 028°39'0 0.0
2018-Mar-27 22:30N 44°07' E 028°39'0 0.0
2018-Mar-27 22:00N 44°07' E 028°39'0 0.0
2018-Mar-27 21:30N 44°07' E 028°39'0 0.0
2018-Mar-27 21:00N 44°07' E 028°39'0 0.0
2018-Mar-27 20:30N 44°07' E 028°39'0 0.0
2018-Mar-27 20:00N 44°07' E 028°39'0 0.0
2018-Mar-27 19:30N 44°07' E 028°39'0 0.0
2018-Mar-27 19:00N 44°07' E 028°39'0 0.0
2018-Mar-27 18:30N 44°07' E 028°39'0 0.0
2018-Mar-27 18:00N 44°07' E 028°39'0 0.0
2018-Mar-27 17:30N 44°07' E 028°39'0 0.0
2018-Mar-27 17:00N 44°07' E 028°39'0 0.0
2018-Mar-27 16:30N 44°07' E 028°39'0 0.0
2018-Mar-27 16:00N 44°07' E 028°39'0 0.0
2018-Mar-27 15:30N 44°07' E 028°39'0 0.0
2018-Mar-27 15:00N 44°07' E 028°39'0 0.0
2018-Mar-27 14:30N 44°07' E 028°39'0 0.0
2018-Mar-27 14:00N 44°07' E 028°39'0 0.0
2018-Mar-27 13:30N 44°07' E 028°39'0 0.0
2018-Mar-27 13:00N 44°07' E 028°39'0 0.0
2018-Mar-27 12:30N 44°07' E 028°39'0 0.0
2018-Mar-27 12:00N 44°07' E 028°39'0 0.0
2018-Mar-27 11:30N 44°07' E 028°39'0 0.0
2018-Mar-27 11:00N 44°07' E 028°39'0 0.0
2018-Mar-27 10:30N 44°07' E 028°39'0 0.0
2018-Mar-27 10:00N 44°07' E 028°39'0 0.0
2018-Mar-27 09:30N 44°07' E 028°39'0 0.0
2018-Mar-27 09:00N 44°07' E 028°39'0 0.0
2018-Mar-27 08:30N 44°07' E 028°39'0 0.0
2018-Mar-27 08:00N 44°07' E 028°39'0 0.0
2018-Mar-27 07:30N 44°07' E 028°39'0 0.0
2018-Mar-27 07:00N 44°07' E 028°39'0 0.0
2018-Mar-27 06:30N 44°07' E 028°39'0 0.0
2018-Mar-27 06:00N 44°07' E 028°39'0 0.0
2018-Mar-27 05:30N 44°07' E 028°39'0 0.0
2018-Mar-27 05:00N 44°07' E 028°39'0 0.0
2018-Mar-27 04:30N 44°07' E 028°39'0 0.0
2018-Mar-27 04:00N 44°07' E 028°39'0 0.0
2018-Mar-27 03:30N 44°07' E 028°39'0 0.0
2018-Mar-27 03:00N 44°07' E 028°39'0 0.0
2018-Mar-27 02:30N 44°07' E 028°39'0 0.0
2018-Mar-27 02:00N 44°07' E 028°39'0 0.0
2018-Mar-27 01:30N 44°07' E 028°39'0 0.0
2018-Mar-27 01:00N 44°07' E 028°39'0 0.0
2018-Mar-27 00:30N 44°07' E 028°39'0 0.0
2018-Mar-27 00:00N 44°07' E 028°39'0 0.0
2018-Mar-26 23:30N 44°07' E 028°39'0 0.0
2018-Mar-26 23:00N 44°07' E 028°39'0 0.0
2018-Mar-26 22:30N 44°07' E 028°39'0 0.0
2018-Mar-26 22:00N 44°07' E 028°39'0 0.0
2018-Mar-26 21:30N 44°07' E 028°39'0 0.0
2018-Mar-26 21:00N 44°07' E 028°39'0 0.0
2018-Mar-26 20:30N 44°07' E 028°39'0 0.0
2018-Mar-26 20:00N 44°07' E 028°39'0 0.0
2018-Mar-26 19:30N 44°07' E 028°39'0 0.0
2018-Mar-26 19:00N 44°07' E 028°39'0 0.0
2018-Mar-26 18:30N 44°07' E 028°39'0 0.0
2018-Mar-26 18:00N 44°07' E 028°39'0 0.0
2018-Mar-26 17:30N 44°07' E 028°39'0 0.0
2018-Mar-26 17:00N 44°07' E 028°39'0 0.0
2018-Mar-26 16:30N 44°07' E 028°39'0 0.0
2018-Mar-26 16:00N 44°07' E 028°39'0 0.0
2018-Mar-26 15:30N 44°07' E 028°39'0 0.0
2018-Mar-26 15:00N 44°07' E 028°39'0 0.0
2018-Mar-26 14:30N 44°07' E 028°39'0 0.0
2018-Mar-26 14:00N 44°07' E 028°39'0 0.0
2018-Mar-26 13:30N 44°07' E 028°39'0 0.0
2018-Mar-26 13:00N 44°07' E 028°39'0 0.0
2018-Mar-26 12:30N 44°07' E 028°39'0 0.0
2018-Mar-26 12:00N 44°07' E 028°39'0 0.0
2018-Mar-26 11:30N 44°07' E 028°39'0 0.0
2018-Mar-26 11:00N 44°07' E 028°39'0 0.0
2018-Mar-26 10:30N 44°07' E 028°39'0 0.0
2018-Mar-26 10:00N 44°07' E 028°39'0 0.0
2018-Mar-26 09:30N 44°07' E 028°39'0 0.0
2018-Mar-26 09:00N 44°07' E 028°39'0 0.0
2018-Mar-26 08:30N 44°07' E 028°39'0 0.0
2018-Mar-26 08:00N 44°07' E 028°39'0 0.0
2018-Mar-26 07:30N 44°07' E 028°39'0 0.0
2018-Mar-26 07:00N 44°07' E 028°39'0 0.0
2018-Mar-26 06:30N 44°07' E 028°39'0 0.0
2018-Mar-26 06:00N 44°07' E 028°39'0 0.0
2018-Mar-26 05:30N 44°07' E 028°39'0 0.0
2018-Mar-26 05:00N 44°07' E 028°39'0 0.0
2018-Mar-26 04:30N 44°07' E 028°39'0 0.0
2018-Mar-26 04:00N 44°07' E 028°39'0 0.0
2018-Mar-26 03:30N 44°07' E 028°39'0 0.0
2018-Mar-26 03:00N 44°07' E 028°39'0 0.0
2018-Mar-26 02:30N 44°07' E 028°39'0 0.0
2018-Mar-26 02:00N 44°07' E 028°39'0 0.0
2018-Mar-26 01:30N 44°07' E 028°39'0 0.0
2018-Mar-26 00:58N 44°07' E 028°39'0 0.0
2018-Mar-26 00:30N 44°07' E 028°39'0 0.0
2018-Mar-26 00:00N 44°07' E 028°39'0 0.0
2018-Mar-25 23:30N 44°07' E 028°39'0 0.0
2018-Mar-25 23:00N 44°07' E 028°39'0 0.0
2018-Mar-25 22:30N 44°07' E 028°39'0 0.0
2018-Mar-25 22:00N 44°07' E 028°39'0 0.0
2018-Mar-25 21:30N 44°07' E 028°39'0 0.0
2018-Mar-25 21:00N 44°07' E 028°39'0 0.0
2018-Mar-25 20:30N 44°07' E 028°39'0 0.0
2018-Mar-25 20:00N 44°07' E 028°39'0 0.0
2018-Mar-25 19:30N 44°07' E 028°39'0 0.0
2018-Mar-25 19:00N 44°07' E 028°39'0 0.0
2018-Mar-25 18:30N 44°07' E 028°39'0 0.0
2018-Mar-25 18:00N 44°07' E 028°39'0 0.0
2018-Mar-25 17:30N 44°07' E 028°39'0 0.0
2018-Mar-25 17:00N 44°07' E 028°39'0 0.0
2018-Mar-25 16:30N 44°07' E 028°39'0 0.0
2018-Mar-25 16:00N 44°07' E 028°39'0 0.0
2018-Mar-25 15:30N 44°07' E 028°39'0 0.0
2018-Mar-25 15:00N 44°07' E 028°39'0 0.0
2018-Mar-25 14:30N 44°07' E 028°39'0 0.0
2018-Mar-25 14:00N 44°07' E 028°39'0 0.0
2018-Mar-25 13:30N 44°07' E 028°39'0 0.0
2018-Mar-25 13:00N 44°07' E 028°39'0 0.0
2018-Mar-25 12:30N 44°07' E 028°39'0 0.0
2018-Mar-25 12:00N 44°07' E 028°39'0 0.0
2018-Mar-25 11:30N 44°07' E 028°39'0 0.0
2018-Mar-25 11:00N 44°07' E 028°39'0 0.0
2018-Mar-25 10:30N 44°07' E 028°39'0 0.0
2018-Mar-25 10:00N 44°07' E 028°39'0 0.0
2018-Mar-25 09:30N 44°07' E 028°39'0 0.0
2018-Mar-25 09:00N 44°07' E 028°39'0 0.0
2018-Mar-25 08:30N 44°07' E 028°39'0 0.0
2018-Mar-25 08:00N 44°07' E 028°39'0 0.0
2018-Mar-25 07:30N 44°07' E 028°39'0 0.0
2018-Mar-25 07:00N 44°07' E 028°39'0 0.0
2018-Mar-25 06:30N 44°07' E 028°39'0 0.0
2018-Mar-25 06:00N 44°07' E 028°39'0 0.0
2018-Mar-25 05:30N 44°07' E 028°39'0 0.0
2018-Mar-25 05:00N 44°07' E 028°39'0 0.0
2018-Mar-25 04:30N 44°07' E 028°39'0 0.0
2018-Mar-25 04:00N 44°07' E 028°39'0 0.0
2018-Mar-25 03:30N 44°07' E 028°39'0 0.0
2018-Mar-25 03:00N 44°07' E 028°39'0 0.0
2018-Mar-25 02:30N 44°07' E 028°39'0 0.0
2018-Mar-25 02:00N 44°07' E 028°39'0 0.0
2018-Mar-25 01:30N 44°07' E 028°39'0 0.0
2018-Mar-25 01:00N 44°07' E 028°39'0 0.0
2018-Mar-25 00:30N 44°07' E 028°39'0 0.0
2018-Mar-25 00:00N 44°07' E 028°39'0 0.0
2018-Mar-24 23:30N 44°07' E 028°39'0 0.0
2018-Mar-24 23:00N 44°07' E 028°39'0 0.0
2018-Mar-24 22:30N 44°07' E 028°39'0 0.0
2018-Mar-24 22:00N 44°07' E 028°39'0 0.0
2018-Mar-24 21:30N 44°07' E 028°39'0 0.0
2018-Mar-24 20:59N 44°07' E 028°39'0 0.0
2018-Mar-24 20:30N 44°07' E 028°39'0 0.0
2018-Mar-24 20:00N 44°07' E 028°39'0 0.0
2018-Mar-24 19:30N 44°07' E 028°39'0 0.0
2018-Mar-24 19:00N 44°07' E 028°39'0 0.0
2018-Mar-24 18:30N 44°07' E 028°39'0 0.0
2018-Mar-24 18:00N 44°07' E 028°39'0 0.0
2018-Mar-24 17:30N 44°07' E 028°39'0 0.0
2018-Mar-24 17:00N 44°07' E 028°39'0 0.0
2018-Mar-24 16:30N 44°07' E 028°39'0 0.0
2018-Mar-24 16:00N 44°07' E 028°39'0 0.0
2018-Mar-24 15:30N 44°07' E 028°39'0 0.0
2018-Mar-24 15:00N 44°07' E 028°39'0 0.0
2018-Mar-24 14:30N 44°07' E 028°39'0 0.0
2018-Mar-24 14:00N 44°07' E 028°39'0 0.0
2018-Mar-24 13:30N 44°07' E 028°39'0 0.0
2018-Mar-24 13:00N 44°07' E 028°39'0 0.0
2018-Mar-24 12:30N 44°07' E 028°39'0 0.0
2018-Mar-24 12:00N 44°07' E 028°39'0 0.0
2018-Mar-24 11:30N 44°07' E 028°39'0 0.0
2018-Mar-24 11:00N 44°07' E 028°39'0 0.0
2018-Mar-24 10:30N 44°07' E 028°39'0 0.0
2018-Mar-24 10:00N 44°07' E 028°39'0 0.0
2018-Mar-24 09:30N 44°07' E 028°39'0 0.0
2018-Mar-24 09:00N 44°07' E 028°39'0 0.0
2018-Mar-24 08:30N 44°07' E 028°39'0 0.0
2018-Mar-24 08:00N 44°07' E 028°39'0 0.0
2018-Mar-24 07:30N 44°07' E 028°39'0 0.0
2018-Mar-24 07:00N 44°07' E 028°39'0 0.0
2018-Mar-24 06:30N 44°07' E 028°39'0 0.0
2018-Mar-24 06:00N 44°07' E 028°39'0 0.0
2018-Mar-24 05:30N 44°07' E 028°39'0 0.0
2018-Mar-24 05:00N 44°07' E 028°39'0 0.0
2018-Mar-24 04:30N 44°07' E 028°39'0 0.0
2018-Mar-24 04:00N 44°07' E 028°39'0 0.0
2018-Mar-24 03:30N 44°07' E 028°39'0 0.0
2018-Mar-24 03:00N 44°07' E 028°39'0 0.0
2018-Mar-24 02:30N 44°07' E 028°39'0 0.0
2018-Mar-24 02:00N 44°07' E 028°39'0 0.0
2018-Mar-24 01:30N 44°07' E 028°39'0 0.0
2018-Mar-24 01:00N 44°07' E 028°39'0 0.0
2018-Mar-24 00:30N 44°07' E 028°39'0 0.0
2018-Mar-24 00:00N 44°07' E 028°39'0 0.0
2018-Mar-23 23:30N 44°07' E 028°39'0 0.0
2018-Mar-23 23:00N 44°07' E 028°39'0 0.0
2018-Mar-23 22:30N 44°07' E 028°39'0 0.0
2018-Mar-23 22:00N 44°07' E 028°39'0 0.0
2018-Mar-23 21:30N 44°07' E 028°39'0 0.0
2018-Mar-23 21:00N 44°07' E 028°39'0 0.0
2018-Mar-23 20:30N 44°07' E 028°39'0 0.0
2018-Mar-23 20:00N 44°07' E 028°39'0 0.0
2018-Mar-23 19:30N 44°07' E 028°39'0 0.0
2018-Mar-23 19:00N 44°07' E 028°39'0 0.0
2018-Mar-23 18:29N 44°07' E 028°39'0 0.0
2018-Mar-23 18:00N 44°07' E 028°39'0 0.0
2018-Mar-23 17:30N 44°07' E 028°39'0 0.0
2018-Mar-23 17:00N 44°07' E 028°39'0 0.0
2018-Mar-23 16:30N 44°07' E 028°39'0 0.0
2018-Mar-23 16:00N 44°07' E 028°39'0 0.0
2018-Mar-23 15:30N 44°07' E 028°39'0 0.0
2018-Mar-23 15:00N 44°07' E 028°39'0 0.0
2018-Mar-23 14:30N 44°07' E 028°39'0 0.0
2018-Mar-23 14:00N 44°07' E 028°39'0 0.0
2018-Mar-23 13:30N 44°07' E 028°39'0 0.0
2018-Mar-23 13:00N 44°07' E 028°39'0 0.0
2018-Mar-23 12:30N 44°07' E 028°39'0 0.0
2018-Mar-23 12:00N 44°07' E 028°39'0 0.0
2018-Mar-23 11:30N 44°07' E 028°39'0 0.0
2018-Mar-23 11:00N 44°07' E 028°39'0 0.0
2018-Mar-23 10:30N 44°07' E 028°39'0 0.0
2018-Mar-23 10:00N 44°07' E 028°39'0 0.0
2018-Mar-23 09:30N 44°07' E 028°39'0 0.0
2018-Mar-23 09:00N 44°07' E 028°39'0 0.0
2018-Mar-23 08:30N 44°07' E 028°39'0 0.0
2018-Mar-23 08:00N 44°07' E 028°39'0 0.0
2018-Mar-23 07:30N 44°07' E 028°39'0 0.0
2018-Mar-23 06:59N 44°07' E 028°39'0 0.0
2018-Mar-23 06:30N 44°07' E 028°39'0 0.0
2018-Mar-23 06:00N 44°07' E 028°39'0 0.0
2018-Mar-23 05:30N 44°07' E 028°39'0 0.0
2018-Mar-23 05:00N 44°07' E 028°39'0 0.0
2018-Mar-23 04:30N 44°07' E 028°39'0 0.0
2018-Mar-23 04:00N 44°07' E 028°39'0 0.0
2018-Mar-23 03:30N 44°07' E 028°39'0 0.0
2018-Mar-23 03:00N 44°07' E 028°39'0 0.0
2018-Mar-23 02:30N 44°07' E 028°39'0 0.0
2018-Mar-23 02:00N 44°07' E 028°39'0 0.0
2018-Mar-23 01:30N 44°07' E 028°39'0 0.0
2018-Mar-23 01:00N 44°07' E 028°39'0 0.0
2018-Mar-23 00:30N 44°07' E 028°39'0 0.0
2018-Mar-23 00:00N 44°07' E 028°39'0 0.0
2018-Mar-22 23:30N 44°07' E 028°39'0 0.0
2018-Mar-22 23:00N 44°07' E 028°39'0 0.0
2018-Mar-22 22:30N 44°07' E 028°39'0 0.0
2018-Mar-22 22:00N 44°07' E 028°39'0 0.0
2018-Mar-22 21:30N 44°07' E 028°39'0 0.0
2018-Mar-22 21:00N 44°07' E 028°39'0 0.0
2018-Mar-22 20:30N 44°07' E 028°39'0 0.0
2018-Mar-22 20:00N 44°07' E 028°39'0 0.0
2018-Mar-22 19:30N 44°07' E 028°39'0 0.0
2018-Mar-22 19:00N 44°07' E 028°39'0 0.0
2018-Mar-22 18:30N 44°07' E 028°39'0 0.0
2018-Mar-22 18:00N 44°07' E 028°39'0 0.0
2018-Mar-22 17:30N 44°07' E 028°39'0 0.0
2018-Mar-22 17:00N 44°07' E 028°39'0 0.0
2018-Mar-22 16:30N 44°07' E 028°39'0 0.0
2018-Mar-22 16:00N 44°07' E 028°39'0 0.0
2018-Mar-22 15:30N 44°07' E 028°39'0 0.0
2018-Mar-22 15:00N 44°07' E 028°39'0 0.0
2018-Mar-22 14:30N 44°07' E 028°39'0 0.0
2018-Mar-22 14:00N 44°07' E 028°39'0 0.0
2018-Mar-22 13:30N 44°07' E 028°39'0 0.0
2018-Mar-22 13:00N 44°07' E 028°39'0 0.0
2018-Mar-22 12:30N 44°07' E 028°39'0 0.0
2018-Mar-22 12:00N 44°07' E 028°39'0 0.0
2018-Mar-22 11:30N 44°07' E 028°39'0 0.0
2018-Mar-22 11:00N 44°07' E 028°39'0 0.0
2018-Mar-22 10:30N 44°07' E 028°39'0 0.0
2018-Mar-22 10:00N 44°07' E 028°39'0 0.0
2018-Mar-22 09:30N 44°07' E 028°39'0 0.0
2018-Mar-22 09:00N 44°07' E 028°39'0 0.0
2018-Mar-22 08:30N 44°07' E 028°39'0 0.0
2018-Mar-22 08:00N 44°07' E 028°39'0 0.0
2018-Mar-22 07:29N 44°07' E 028°39'0 0.0
2018-Mar-22 07:00N 44°07' E 028°39'0 0.0
2018-Mar-22 06:30N 44°07' E 028°39'0 0.0
2018-Mar-22 06:00N 44°07' E 028°39'0 0.0
2018-Mar-22 05:30N 44°07' E 028°39'0 0.0
2018-Mar-22 05:00N 44°07' E 028°39'0 0.0
2018-Mar-22 04:30N 44°07' E 028°39'0 0.0
2018-Mar-22 04:00N 44°07' E 028°39'0 0.0
2018-Mar-22 03:30N 44°07' E 028°39'0 0.0
2018-Mar-22 03:00N 44°07' E 028°39'0 0.0
2018-Mar-22 02:30N 44°07' E 028°39'0 0.0
2018-Mar-22 02:00N 44°07' E 028°39'0 0.0
2018-Mar-22 01:30N 44°07' E 028°39'0 0.0
2018-Mar-22 01:00N 44°07' E 028°39'0 0.0
2018-Mar-22 00:30N 44°07' E 028°39'0 0.0
2018-Mar-22 00:00N 44°07' E 028°39'0 0.0
2018-Mar-21 23:30N 44°07' E 028°39'0 0.0
2018-Mar-21 23:00N 44°07' E 028°39'0 0.0
2018-Mar-21 22:30N 44°07' E 028°39'0 0.0
2018-Mar-21 22:00N 44°07' E 028°39'0 0.0
2018-Mar-21 21:30N 44°07' E 028°39'0 0.0
2018-Mar-21 21:00N 44°07' E 028°39'0 0.0
2018-Mar-21 20:30N 44°07' E 028°39'0 0.0
2018-Mar-21 20:00N 44°07' E 028°39'0 0.0
2018-Mar-21 19:30N 44°07' E 028°39'0 0.0
2018-Mar-21 19:00N 44°07' E 028°39'0 0.0
2018-Mar-21 18:30N 44°07' E 028°39'0 0.0
2018-Mar-21 18:00N 44°07' E 028°39'0 0.0
2018-Mar-21 17:30N 44°07' E 028°39'0 0.0
2018-Mar-21 17:00N 44°07' E 028°39'0 0.0
2018-Mar-21 16:30N 44°07' E 028°39'0 0.0
2018-Mar-21 16:00N 44°07' E 028°39'0 0.0
2018-Mar-21 15:30N 44°07' E 028°39'0 0.0
2018-Mar-21 15:00N 44°07' E 028°39'0 0.0
2018-Mar-21 14:31N 44°07' E 028°39'0 0.0
2018-Mar-21 14:00N 44°07' E 028°39'0 0.0
2018-Mar-21 13:30N 44°07' E 028°39'0 0.0
2018-Mar-21 13:00N 44°07' E 028°39'0 0.0
2018-Mar-21 12:30N 44°07' E 028°39'0 0.0
2018-Mar-21 12:00N 44°07' E 028°39'0 0.0
2018-Mar-21 11:30N 44°07' E 028°39'0 0.0
2018-Mar-21 11:00N 44°07' E 028°39'0 0.0
2018-Mar-21 10:30N 44°07' E 028°39'0 0.0
2018-Mar-21 10:01N 44°07' E 028°39'0 0.0
2018-Mar-21 09:30N 44°07' E 028°39'0 0.0
2018-Mar-21 09:00N 44°07' E 028°39'0 0.0
2018-Mar-21 08:30N 44°07' E 028°39'0 0.0
2018-Mar-21 08:00N 44°07' E 028°39'0 0.0
2018-Mar-21 07:30N 44°07' E 028°39'0 0.0
2018-Mar-21 07:00N 44°07' E 028°39'0 0.0
2018-Mar-21 06:30N 44°07' E 028°39'0 0.0
2018-Mar-21 06:01N 44°07' E 028°39'0 0.0
2018-Mar-21 05:30N 44°07' E 028°39'0 0.0
2018-Mar-21 05:00N 44°07' E 028°39'0 0.0
2018-Mar-21 04:30N 44°07' E 028°39'0 0.0
2018-Mar-21 04:00N 44°07' E 028°39'0 0.0
2018-Mar-21 03:30N 44°07' E 028°39'0 0.0
2018-Mar-21 03:00N 44°07' E 028°39'0 0.0
2018-Mar-21 02:30N 44°07' E 028°39'0 0.0
2018-Mar-21 02:00N 44°07' E 028°39'0 0.0
2018-Mar-21 01:30N 44°07' E 028°39'0 0.0
2018-Mar-21 01:00N 44°07' E 028°39'0 0.0
2018-Mar-21 00:31N 44°07' E 028°39'0 0.0
2018-Mar-21 00:00N 44°07' E 028°39'0 0.0
2018-Mar-20 23:31N 44°07' E 028°39'  
Track history (hours):
 
Tides and Currents Weather Stations Pressure Air Temp Water Temp Dewpoint Dewpoint Depression Visibility Wind Speed Wind Dir Waves Ship Positions

Cosmin + Cosmina 1

Last reported at 2018-Mar-30 23:12 UTC. Time now 2018-Jul-22 08:31 UTC.
Position N 44°18' E 028°03'.
Warning: this ship's position is months out of date.

Length 82 m; draft 1.4 m.

MMSI: 264162605.

Date/timePositionNaut miles runAvg speedWind from/ knotsBaromVisibWave heightAir tempDewpointWater temp
2018-Mar-30 23:12N 44°18' E 028°03'0 0.0
2018-Mar-30 18:20N 44°18' E 028°03'2 4.6
2018-Mar-30 17:58N 44°17' E 028°05'2 5.2
2018-Mar-30 17:30N 44°16' E 028°08'3 5.2
2018-Mar-30 17:00N 44°16' E 028°11'3 5.3
2018-Mar-30 16:29N 44°15' E 028°15'3 5.3
2018-Mar-30 16:00N 44°15' E 028°19'3 5.0
2018-Mar-30 15:30N 44°14' E 028°22'3 5.2
2018-Mar-30 14:59N 44°12' E 028°24'3 5.3
2018-Mar-30 14:27N 44°09' E 028°26'5 4.7
2018-Mar-30 13:28N 44°06' E 028°30'2 5.2
2018-Mar-30 13:00N 44°06' E 028°34'2 4.9
2018-Mar-30 12:30N 44°06' E 028°37'0 0.3
2018-Mar-30 12:00N 44°06' E 028°37'1 2.5
2018-Mar-30 11:30N 44°07' E 028°39'1 1.5
2018-Mar-30 11:00N 44°07' E 028°39'0 0.0
2018-Mar-30 10:30N 44°07' E 028°39'0 0.0
2018-Mar-30 10:00N 44°07' E 028°39'0 0.0
2018-Mar-30 09:30N 44°07' E 028°39'0 0.0
2018-Mar-30 09:00N 44°07' E 028°39'0 0.0
2018-Mar-30 08:30N 44°07' E 028°39'0 0.6
2018-Mar-30 08:00N 44°07' E 028°39'0 0.2
2018-Mar-30 07:30N 44°07' E 028°39'0 0.0
2018-Mar-30 07:00N 44°07' E 028°39'0 0.0
2018-Mar-30 06:30N 44°07' E 028°39'0 0.0
2018-Mar-30 06:00N 44°07' E 028°39'0 0.0
2018-Mar-30 05:30N 44°07' E 028°39'0 0.0
2018-Mar-30 05:00N 44°07' E 028°39'0 0.0
2018-Mar-30 04:30N 44°07' E 028°39'0 0.0
2018-Mar-30 04:00N 44°07' E 028°39'0 0.0
2018-Mar-30 03:30N 44°07' E 028°39'0 0.0
2018-Mar-30 03:00N 44°07' E 028°39'0 0.0
2018-Mar-30 02:30N 44°07' E 028°39'0 0.0
2018-Mar-30 02:00N 44°07' E 028°39'0 0.0
2018-Mar-30 01:30N 44°07' E 028°39'0 0.0
2018-Mar-30 01:00N 44°07' E 028°39'0 0.0
2018-Mar-30 00:30N 44°07' E 028°39'0 0.0
2018-Mar-30 00:00N 44°07' E 028°39'0 0.0
2018-Mar-29 23:30N 44°07' E 028°39'0 0.0
2018-Mar-29 23:00N 44°07' E 028°39'0 0.0
2018-Mar-29 22:30N 44°07' E 028°39'0 0.0
2018-Mar-29 22:00N 44°07' E 028°39'0 0.0
2018-Mar-29 21:30N 44°07' E 028°39'0 0.0
2018-Mar-29 21:00N 44°07' E 028°39'0 0.0
2018-Mar-29 20:30N 44°07' E 028°39'0 0.0
2018-Mar-29 20:00N 44°07' E 028°39'0 0.0
2018-Mar-29 19:30N 44°07' E 028°39'0 0.0
2018-Mar-29 19:00N 44°07' E 028°39'0 0.0
2018-Mar-29 18:30N 44°07' E 028°39'0 0.0
2018-Mar-29 18:00N 44°07' E 028°39'0 0.0
2018-Mar-29 17:30N 44°07' E 028°39'0 0.0
2018-Mar-29 17:00N 44°07' E 028°39'0 0.0
2018-Mar-29 16:30N 44°07' E 028°39'0 0.0
2018-Mar-29 16:00N 44°07' E 028°39'0 0.0
2018-Mar-29 15:30N 44°07' E 028°39'0 0.0
2018-Mar-29 15:00N 44°07' E 028°39'0 0.0
2018-Mar-29 14:30N 44°07' E 028°39'0 0.0
2018-Mar-29 14:00N 44°07' E 028°39'0 0.0
2018-Mar-29 13:30N 44°07' E 028°39'0 0.0
2018-Mar-29 13:00N 44°07' E 028°39'0 0.0
2018-Mar-29 12:30N 44°07' E 028°39'0 0.0
2018-Mar-29 12:00N 44°07' E 028°39'0 0.0
2018-Mar-29 11:30N 44°07' E 028°39'0 0.0
2018-Mar-29 11:00N 44°07' E 028°39'0 0.0
2018-Mar-29 10:30N 44°07' E 028°39'0 0.0
2018-Mar-29 10:00N 44°07' E 028°39'0 0.0
2018-Mar-29 09:30N 44°07' E 028°39'0 0.0
2018-Mar-29 09:00N 44°07' E 028°39'0 0.0
2018-Mar-29 08:30N 44°07' E 028°39'0 0.0
2018-Mar-29 08:00N 44°07' E 028°39'0 0.0
2018-Mar-29 07:30N 44°07' E 028°39'0 0.0
2018-Mar-29 07:00N 44°07' E 028°39'0 0.0
2018-Mar-29 06:30N 44°07' E 028°39'0 0.0
2018-Mar-29 06:00N 44°07' E 028°39'0 0.0
2018-Mar-29 05:30N 44°07' E 028°39'0 0.0
2018-Mar-29 05:00N 44°07' E 028°39'0 0.0
2018-Mar-29 04:30N 44°07' E 028°39'0 0.0
2018-Mar-29 04:00N 44°07' E 028°39'0 0.0
2018-Mar-29 03:30N 44°07' E 028°39'0 0.0
2018-Mar-29 03:00N 44°07' E 028°39'0 0.0
2018-Mar-29 02:30N 44°07' E 028°39'0 0.0
2018-Mar-29 02:00N 44°07' E 028°39'0 0.0
2018-Mar-29 01:30N 44°07' E 028°39'0 0.0
2018-Mar-29 01:00N 44°07' E 028°39'0 0.0
2018-Mar-29 00:30N 44°07' E 028°39'0 0.0
2018-Mar-29 00:00N 44°07' E 028°39'0 0.0
2018-Mar-28 23:30N 44°07' E 028°39'0 0.0
2018-Mar-28 23:00N 44°07' E 028°39'0 0.0
2018-Mar-28 22:30N 44°07' E 028°39'0 0.0
2018-Mar-28 22:00N 44°07' E 028°39'0 0.0
2018-Mar-28 21:30N 44°07' E 028°39'0 0.0
2018-Mar-28 21:00N 44°07' E 028°39'0 0.0
2018-Mar-28 20:30N 44°07' E 028°39'0 0.0
2018-Mar-28 20:00N 44°07' E 028°39'0 0.0
2018-Mar-28 19:30N 44°07' E 028°39'0 0.0
2018-Mar-28 19:00N 44°07' E 028°39'0 0.0
2018-Mar-28 18:30N 44°07' E 028°39'0 0.0
2018-Mar-28 18:00N 44°07' E 028°39'0 0.0
2018-Mar-28 17:30N 44°07' E 028°39'0 0.0
2018-Mar-28 17:00N 44°07' E 028°39'0 0.0
2018-Mar-28 16:29N 44°07' E 028°39'0 0.0
2018-Mar-28 16:00N 44°07' E 028°39'0 0.0
2018-Mar-28 15:30N 44°07' E 028°39'0 0.0
2018-Mar-28 15:00N 44°07' E 028°39'0 0.0
2018-Mar-28 14:29N 44°07' E 028°39'0 0.0
2018-Mar-28 14:00N 44°07' E 028°39'0 0.0
2018-Mar-28 13:30N 44°07' E 028°39'0 0.0
2018-Mar-28 13:00N 44°07' E 028°39'0 0.0
2018-Mar-28 12:30N 44°07' E 028°39'0 0.0
2018-Mar-28 12:00N 44°07' E 028°39'0 0.0
2018-Mar-28 11:30N 44°07' E 028°39'0 0.0
2018-Mar-28 11:00N 44°07' E 028°39'0 0.0
2018-Mar-28 10:30N 44°07' E 028°39'0 0.0
2018-Mar-28 10:00N 44°07' E 028°39'0 0.0
2018-Mar-28 09:30N 44°07' E 028°39'0 0.0
2018-Mar-28 09:00N 44°07' E 028°39'0 0.0
2018-Mar-28 08:30N 44°07' E 028°39'0 0.0
2018-Mar-28 08:00N 44°07' E 028°39'0 0.0
2018-Mar-28 07:30N 44°07' E 028°39'0 0.0
2018-Mar-28 07:00N 44°07' E 028°39'0 0.0
2018-Mar-28 06:29N 44°07' E 028°39'0 0.0
2018-Mar-28 06:00N 44°07' E 028°39'0 0.0
2018-Mar-28 05:30N 44°07' E 028°39'0 0.0
2018-Mar-28 05:00N 44°07' E 028°39'0 0.0
2018-Mar-28 04:30N 44°07' E 028°39'0 0.0
2018-Mar-28 04:00N 44°07' E 028°39'0 0.0
2018-Mar-28 03:30N 44°07' E 028°39'0 0.0
2018-Mar-28 03:00N 44°07' E 028°39'0 0.0
2018-Mar-28 02:30N 44°07' E 028°39'0 0.0
2018-Mar-28 02:00N 44°07' E 028°39'0 0.0
2018-Mar-28 01:30N 44°07' E 028°39'0 0.0
2018-Mar-28 01:00N 44°07' E 028°39'0 0.0
2018-Mar-28 00:30N 44°07' E 028°39'0 0.0
2018-Mar-28 00:00N 44°07' E 028°39'0 0.0
2018-Mar-27 23:30N 44°07' E 028°39'0 0.0
2018-Mar-27 23:00N 44°07' E 028°39'0 0.0
2018-Mar-27 22:30N 44°07' E 028°39'0 0.0
2018-Mar-27 22:00N 44°07' E 028°39'0 0.0
2018-Mar-27 21:30N 44°07' E 028°39'0 0.0
2018-Mar-27 21:00N 44°07' E 028°39'0 0.0
2018-Mar-27 20:30N 44°07' E 028°39'0 0.0
2018-Mar-27 20:00N 44°07' E 028°39'0 0.0
2018-Mar-27 19:30N 44°07' E 028°39'0 0.0
2018-Mar-27 19:00N 44°07' E 028°39'0 0.0
2018-Mar-27 18:30N 44°07' E 028°39'0 0.0
2018-Mar-27 18:00N 44°07' E 028°39'0 0.0
2018-Mar-27 17:30N 44°07' E 028°39'0 0.0
2018-Mar-27 17:00N 44°07' E 028°39'0 0.0
2018-Mar-27 16:30N 44°07' E 028°39'0 0.0
2018-Mar-27 16:00N 44°07' E 028°39'0 0.0
2018-Mar-27 15:30N 44°07' E 028°39'0 0.0
2018-Mar-27 15:00N 44°07' E 028°39'0 0.0
2018-Mar-27 14:30N 44°07' E 028°39'0 0.0
2018-Mar-27 14:00N 44°07' E 028°39'0 0.0
2018-Mar-27 13:30N 44°07' E 028°39'0 0.0
2018-Mar-27 13:00N 44°07' E 028°39'0 0.0
2018-Mar-27 12:30N 44°07' E 028°39'0 0.0
2018-Mar-27 12:00N 44°07' E 028°39'0 0.0
2018-Mar-27 11:30N 44°07' E 028°39'0 0.0
2018-Mar-27 11:00N 44°07' E 028°39'0 0.0
2018-Mar-27 10:30N 44°07' E 028°39'0 0.0
2018-Mar-27 10:00N 44°07' E 028°39'0 0.0
2018-Mar-27 09:30N 44°07' E 028°39'0 0.0
2018-Mar-27 09:00N 44°07' E 028°39'0 0.0
2018-Mar-27 08:30N 44°07' E 028°39'0 0.0
2018-Mar-27 08:00N 44°07' E 028°39'0 0.0
2018-Mar-27 07:30N 44°07' E 028°39'0 0.0
2018-Mar-27 07:00N 44°07' E 028°39'0 0.0
2018-Mar-27 06:30N 44°07' E 028°39'0 0.0
2018-Mar-27 06:00N 44°07' E 028°39'0 0.0
2018-Mar-27 05:30N 44°07' E 028°39'0 0.0
2018-Mar-27 05:00N 44°07' E 028°39'0 0.0
2018-Mar-27 04:30N 44°07' E 028°39'0 0.0
2018-Mar-27 04:00N 44°07' E 028°39'0 0.0
2018-Mar-27 03:30N 44°07' E 028°39'0 0.0
2018-Mar-27 03:00N 44°07' E 028°39'0 0.0
2018-Mar-27 02:30N 44°07' E 028°39'0 0.0
2018-Mar-27 02:00N 44°07' E 028°39'0 0.0
2018-Mar-27 01:30N 44°07' E 028°39'0 0.0
2018-Mar-27 01:00N 44°07' E 028°39'0 0.0
2018-Mar-27 00:30N 44°07' E 028°39'0 0.0
2018-Mar-27 00:00N 44°07' E 028°39'0 0.0
2018-Mar-26 23:30N 44°07' E 028°39'0 0.0
2018-Mar-26 23:00N 44°07' E 028°39'0 0.0
2018-Mar-26 22:30N 44°07' E 028°39'0 0.0
2018-Mar-26 22:00N 44°07' E 028°39'0 0.0
2018-Mar-26 21:30N 44°07' E 028°39'0 0.0
2018-Mar-26 21:00N 44°07' E 028°39'0 0.0
2018-Mar-26 20:30N 44°07' E 028°39'0 0.0
2018-Mar-26 20:00N 44°07' E 028°39'0 0.0
2018-Mar-26 19:30N 44°07' E 028°39'0 0.0
2018-Mar-26 19:00N 44°07' E 028°39'0 0.0
2018-Mar-26 18:30N 44°07' E 028°39'0 0.0
2018-Mar-26 18:00N 44°07' E 028°39'0 0.0
2018-Mar-26 17:30N 44°07' E 028°39'0 0.0
2018-Mar-26 17:00N 44°07' E 028°39'0 0.0
2018-Mar-26 16:30N 44°07' E 028°39'0 0.0
2018-Mar-26 16:00N 44°07' E 028°39'0 0.0
2018-Mar-26 15:30N 44°07' E 028°39'0 0.0
2018-Mar-26 15:00N 44°07' E 028°39'0 0.0
2018-Mar-26 14:30N 44°07' E 028°39'0 0.0
2018-Mar-26 14:00N 44°07' E 028°39'0 0.0
2018-Mar-26 13:30N 44°07' E 028°39'0 0.0
2018-Mar-26 13:00N 44°07' E 028°39'0 0.0
2018-Mar-26 12:30N 44°07' E 028°39'0 0.0
2018-Mar-26 12:00N 44°07' E 028°39'0 0.0
2018-Mar-26 11:30N 44°07' E 028°39'0 0.0
2018-Mar-26 11:00N 44°07' E 028°39'0 0.0
2018-Mar-26 10:30N 44°07' E 028°39'0 0.0
2018-Mar-26 10:00N 44°07' E 028°39'0 0.0
2018-Mar-26 09:30N 44°07' E 028°39'0 0.0
2018-Mar-26 09:00N 44°07' E 028°39'0 0.0
2018-Mar-26 08:30N 44°07' E 028°39'0 0.0
2018-Mar-26 08:00N 44°07' E 028°39'0 0.0
2018-Mar-26 07:30N 44°07' E 028°39'0 0.0
2018-Mar-26 07:00N 44°07' E 028°39'0 0.0
2018-Mar-26 06:30N 44°07' E 028°39'0 0.0
2018-Mar-26 06:00N 44°07' E 028°39'0 0.0
2018-Mar-26 05:30N 44°07' E 028°39'0 0.0
2018-Mar-26 05:00N 44°07' E 028°39'0 0.0
2018-Mar-26 04:30N 44°07' E 028°39'0 0.0
2018-Mar-26 04:00N 44°07' E 028°39'0 0.0
2018-Mar-26 03:30N 44°07' E 028°39'0 0.0
2018-Mar-26 03:00N 44°07' E 028°39'0 0.0
2018-Mar-26 02:30N 44°07' E 028°39'0 0.0
2018-Mar-26 02:00N 44°07' E 028°39'0 0.0
2018-Mar-26 01:30N 44°07' E 028°39'0 0.0
2018-Mar-26 00:58N 44°07' E 028°39'0 0.0
2018-Mar-26 00:30N 44°07' E 028°39'0 0.0
2018-Mar-26 00:00N 44°07' E 028°39'0 0.0
2018-Mar-25 23:30N 44°07' E 028°39'0 0.0
2018-Mar-25 23:00N 44°07' E 028°39'0 0.0
2018-Mar-25 22:30N 44°07' E 028°39'0 0.0
2018-Mar-25 22:00N 44°07' E 028°39'0 0.0
2018-Mar-25 21:30N 44°07' E 028°39'0 0.0
2018-Mar-25 21:00N 44°07' E 028°39'0 0.0
2018-Mar-25 20:30N 44°07' E 028°39'0 0.0
2018-Mar-25 20:00N 44°07' E 028°39'0 0.0
2018-Mar-25 19:30N 44°07' E 028°39'0 0.0
2018-Mar-25 19:00N 44°07' E 028°39'0 0.0
2018-Mar-25 18:30N 44°07' E 028°39'0 0.0
2018-Mar-25 18:00N 44°07' E 028°39'0 0.0
2018-Mar-25 17:30N 44°07' E 028°39'0 0.0
2018-Mar-25 17:00N 44°07' E 028°39'0 0.0
2018-Mar-25 16:30N 44°07' E 028°39'0 0.0
2018-Mar-25 16:00N 44°07' E 028°39'0 0.0
2018-Mar-25 15:30N 44°07' E 028°39'0 0.0
2018-Mar-25 15:00N 44°07' E 028°39'0 0.0
2018-Mar-25 14:30N 44°07' E 028°39'0 0.0
2018-Mar-25 14:00N 44°07' E 028°39'0 0.0
2018-Mar-25 13:30N 44°07' E 028°39'0 0.0
2018-Mar-25 13:00N 44°07' E 028°39'0 0.0
2018-Mar-25 12:30N 44°07' E 028°39'0 0.0
2018-Mar-25 12:00N 44°07' E 028°39'0 0.0
2018-Mar-25 11:30N 44°07' E 028°39'0 0.0
2018-Mar-25 11:00N 44°07' E 028°39'0 0.0
2018-Mar-25 10:30N 44°07' E 028°39'0 0.0
2018-Mar-25 10:00N 44°07' E 028°39'0 0.0
2018-Mar-25 09:30N 44°07' E 028°39'0 0.0
2018-Mar-25 09:00N 44°07' E 028°39'0 0.0
2018-Mar-25 08:30N 44°07' E 028°39'0 0.0
2018-Mar-25 08:00N 44°07' E 028°39'0 0.0
2018-Mar-25 07:30N 44°07' E 028°39'0 0.0
2018-Mar-25 07:00N 44°07' E 028°39'0 0.0
2018-Mar-25 06:30N 44°07' E 028°39'0 0.0
2018-Mar-25 06:00N 44°07' E 028°39'0 0.0
2018-Mar-25 05:30N 44°07' E 028°39'0 0.0
2018-Mar-25 05:00N 44°07' E 028°39'0 0.0
2018-Mar-25 04:30N 44°07' E 028°39'0 0.0
2018-Mar-25 04:00N 44°07' E 028°39'0 0.0
2018-Mar-25 03:30N 44°07' E 028°39'0 0.0
2018-Mar-25 03:00N 44°07' E 028°39'0 0.0
2018-Mar-25 02:30N 44°07' E 028°39'0 0.0
2018-Mar-25 02:00N 44°07' E 028°39'0 0.0
2018-Mar-25 01:30N 44°07' E 028°39'0 0.0
2018-Mar-25 01:00N 44°07' E 028°39'0 0.0
2018-Mar-25 00:30N 44°07' E 028°39'0 0.0
2018-Mar-25 00:00N 44°07' E 028°39'0 0.0
2018-Mar-24 23:30N 44°07' E 028°39'0 0.0
2018-Mar-24 23:00N 44°07' E 028°39'0 0.0
2018-Mar-24 22:30N 44°07' E 028°39'0 0.0
2018-Mar-24 22:00N 44°07' E 028°39'0 0.0
2018-Mar-24 21:30N 44°07' E 028°39'0 0.0
2018-Mar-24 20:59N 44°07' E 028°39'0 0.0
2018-Mar-24 20:30N 44°07' E 028°39'0 0.0
2018-Mar-24 20:00N 44°07' E 028°39'0 0.0
2018-Mar-24 19:30N 44°07' E 028°39'0 0.0
2018-Mar-24 19:00N 44°07' E 028°39'0 0.0
2018-Mar-24 18:30N 44°07' E 028°39'0 0.0
2018-Mar-24 18:00N 44°07' E 028°39'0 0.0
2018-Mar-24 17:30N 44°07' E 028°39'0 0.0
2018-Mar-24 17:00N 44°07' E 028°39'0 0.0
2018-Mar-24 16:30N 44°07' E 028°39'0 0.0
2018-Mar-24 16:00N 44°07' E 028°39'0 0.0
2018-Mar-24 15:30N 44°07' E 028°39'0 0.0
2018-Mar-24 15:00N 44°07' E 028°39'0 0.0
2018-Mar-24 14:30N 44°07' E 028°39'0 0.0
2018-Mar-24 14:00N 44°07' E 028°39'0 0.0
2018-Mar-24 13:30N 44°07' E 028°39'0 0.0
2018-Mar-24 13:00N 44°07' E 028°39'0 0.0
2018-Mar-24 12:30N 44°07' E 028°39'0 0.0
2018-Mar-24 12:00N 44°07' E 028°39'0 0.0
2018-Mar-24 11:30N 44°07' E 028°39'0 0.0
2018-Mar-24 11:00N 44°07' E 028°39'0 0.0
2018-Mar-24 10:30N 44°07' E 028°39'0 0.0
2018-Mar-24 10:00N 44°07' E 028°39'0 0.0
2018-Mar-24 09:30N 44°07' E 028°39'0 0.0
2018-Mar-24 09:00N 44°07' E 028°39'0 0.0
2018-Mar-24 08:30N 44°07' E 028°39'0 0.0
2018-Mar-24 08:00N 44°07' E 028°39'0 0.0
2018-Mar-24 07:30N 44°07' E 028°39'0 0.0
2018-Mar-24 07:00N 44°07' E 028°39'0 0.0
2018-Mar-24 06:30N 44°07' E 028°39'0 0.0
2018-Mar-24 06:00N 44°07' E 028°39'0 0.0
2018-Mar-24 05:30N 44°07' E 028°39'0 0.0
2018-Mar-24 05:00N 44°07' E 028°39'0 0.0
2018-Mar-24 04:30N 44°07' E 028°39'0 0.0
2018-Mar-24 04:00N 44°07' E 028°39'0 0.0
2018-Mar-24 03:30N 44°07' E 028°39'0 0.0
2018-Mar-24 03:00N 44°07' E 028°39'0 0.0
2018-Mar-24 02:30N 44°07' E 028°39'0 0.0
2018-Mar-24 02:00N 44°07' E 028°39'0 0.0
2018-Mar-24 01:30N 44°07' E 028°39'0 0.0
2018-Mar-24 01:00N 44°07' E 028°39'0 0.0
2018-Mar-24 00:30N 44°07' E 028°39'0 0.0
2018-Mar-24 00:00N 44°07' E 028°39'0 0.0
2018-Mar-23 23:30N 44°07' E 028°39'0 0.0
2018-Mar-23 23:00N 44°07' E 028°39'0 0.0
2018-Mar-23 22:30N 44°07' E 028°39'0 0.0
2018-Mar-23 22:00N 44°07' E 028°39'0 0.0
2018-Mar-23 21:30N 44°07' E 028°39'0 0.0
2018-Mar-23 21:00N 44°07' E 028°39'0 0.0
2018-Mar-23 20:30N 44°07' E 028°39'0 0.0
2018-Mar-23 20:00N 44°07' E 028°39'0 0.0
2018-Mar-23 19:30N 44°07' E 028°39'0 0.0
2018-Mar-23 19:00N 44°07' E 028°39'0 0.0
2018-Mar-23 18:29N 44°07' E 028°39'0 0.0
2018-Mar-23 18:00N 44°07' E 028°39'0 0.0
2018-Mar-23 17:30N 44°07' E 028°39'0 0.0
2018-Mar-23 17:00N 44°07' E 028°39'0 0.0
2018-Mar-23 16:30N 44°07' E 028°39'0 0.0
2018-Mar-23 16:00N 44°07' E 028°39'0 0.0
2018-Mar-23 15:30N 44°07' E 028°39'0 0.0
2018-Mar-23 15:00N 44°07' E 028°39'0 0.0
2018-Mar-23 14:30N 44°07' E 028°39'0 0.0
2018-Mar-23 14:00N 44°07' E 028°39'0 0.0
2018-Mar-23 13:30N 44°07' E 028°39'0 0.0
2018-Mar-23 13:00N 44°07' E 028°39'0 0.0
2018-Mar-23 12:30N 44°07' E 028°39'0 0.0
2018-Mar-23 12:00N 44°07' E 028°39'0 0.0
2018-Mar-23 11:30N 44°07' E 028°39'0 0.0
2018-Mar-23 11:00N 44°07' E 028°39'0 0.0
2018-Mar-23 10:30N 44°07' E 028°39'0 0.0
2018-Mar-23 10:00N 44°07' E 028°39'0 0.0
2018-Mar-23 09:30N 44°07' E 028°39'0 0.0
2018-Mar-23 09:00N 44°07' E 028°39'0 0.0
2018-Mar-23 08:30N 44°07' E 028°39'0 0.0
2018-Mar-23 08:00N 44°07' E 028°39'0 0.0
2018-Mar-23 07:30N 44°07' E 028°39'0 0.0
2018-Mar-23 06:59N 44°07' E 028°39'0 0.0
2018-Mar-23 06:30N 44°07' E 028°39'0 0.0
2018-Mar-23 06:00N 44°07' E 028°39'0 0.0
2018-Mar-23 05:30N 44°07' E 028°39'0 0.0
2018-Mar-23 05:00N 44°07' E 028°39'0 0.0
2018-Mar-23 04:30N 44°07' E 028°39'0 0.0
2018-Mar-23 04:00N 44°07' E 028°39'0 0.0
2018-Mar-23 03:30N 44°07' E 028°39'0 0.0
2018-Mar-23 03:00N 44°07' E 028°39'0 0.0
2018-Mar-23 02:30N 44°07' E 028°39'0 0.0
2018-Mar-23 02:00N 44°07' E 028°39'0 0.0
2018-Mar-23 01:30N 44°07' E 028°39'0 0.0
2018-Mar-23 01:00N 44°07' E 028°39'0 0.0
2018-Mar-23 00:30N 44°07' E 028°39'0 0.0
2018-Mar-23 00:00N 44°07' E 028°39'0 0.0
2018-Mar-22 23:30N 44°07' E 028°39'0 0.0
2018-Mar-22 23:00N 44°07' E 028°39'0 0.0
2018-Mar-22 22:30N 44°07' E 028°39'0 0.0
2018-Mar-22 22:00N 44°07' E 028°39'0 0.0
2018-Mar-22 21:30N 44°07' E 028°39'0 0.0
2018-Mar-22 21:00N 44°07' E 028°39'0 0.0
2018-Mar-22 20:30N 44°07' E 028°39'0 0.0
2018-Mar-22 20:00N 44°07' E 028°39'0 0.0
2018-Mar-22 19:30N 44°07' E 028°39'0 0.0
2018-Mar-22 19:00N 44°07' E 028°39'0 0.0
2018-Mar-22 18:30N 44°07' E 028°39'0 0.0
2018-Mar-22 18:00N 44°07' E 028°39'0 0.0
2018-Mar-22 17:30N 44°07' E 028°39'0 0.0
2018-Mar-22 17:00N 44°07' E 028°39'0 0.0
2018-Mar-22 16:30N 44°07' E 028°39'0 0.0
2018-Mar-22 16:00N 44°07' E 028°39'0 0.0
2018-Mar-22 15:30N 44°07' E 028°39'0 0.0
2018-Mar-22 15:00N 44°07' E 028°39'0 0.0
2018-Mar-22 14:30N 44°07' E 028°39'0 0.0
2018-Mar-22 14:00N 44°07' E 028°39'0 0.0
2018-Mar-22 13:30N 44°07' E 028°39'0 0.0
2018-Mar-22 13:00N 44°07' E 028°39'0 0.0
2018-Mar-22 12:30N 44°07' E 028°39'0 0.0
2018-Mar-22 12:00N 44°07' E 028°39'0 0.0
2018-Mar-22 11:30N 44°07' E 028°39'0 0.0
2018-Mar-22 11:00N 44°07' E 028°39'0 0.0
2018-Mar-22 10:30N 44°07' E 028°39'0 0.0
2018-Mar-22 10:00N 44°07' E 028°39'0 0.0
2018-Mar-22 09:30N 44°07' E 028°39'0 0.0
2018-Mar-22 09:00N 44°07' E 028°39'0 0.0
2018-Mar-22 08:30N 44°07' E 028°39'0 0.0
2018-Mar-22 08:00N 44°07' E 028°39'0 0.0
2018-Mar-22 07:29N 44°07' E 028°39'0 0.0
2018-Mar-22 07:00N 44°07' E 028°39'0 0.0
2018-Mar-22 06:30N 44°07' E 028°39'0 0.0
2018-Mar-22 06:00N 44°07' E 028°39'0 0.0
2018-Mar-22 05:30N 44°07' E 028°39'0 0.0
2018-Mar-22 05:00N 44°07' E 028°39'0 0.0
2018-Mar-22 04:30N 44°07' E 028°39'0 0.0
2018-Mar-22 04:00N 44°07' E 028°39'0 0.0
2018-Mar-22 03:30N 44°07' E 028°39'0 0.0
2018-Mar-22 03:00N 44°07' E 028°39'0 0.0
2018-Mar-22 02:30N 44°07' E 028°39'0 0.0
2018-Mar-22 02:00N 44°07' E 028°39'0 0.0
2018-Mar-22 01:30N 44°07' E 028°39'0 0.0
2018-Mar-22 01:00N 44°07' E 028°39'0 0.0
2018-Mar-22 00:30N 44°07' E 028°39'0 0.0
2018-Mar-22 00:00N 44°07' E 028°39'0 0.0
2018-Mar-21 23:30N 44°07' E 028°39'0 0.0
2018-Mar-21 23:00N 44°07' E 028°39'0 0.0
2018-Mar-21 22:30N 44°07' E 028°39'0 0.0
2018-Mar-21 22:00N 44°07' E 028°39'0 0.0
2018-Mar-21 21:30N 44°07' E 028°39'0 0.0
2018-Mar-21 21:00N 44°07' E 028°39'0 0.0
2018-Mar-21 20:30N 44°07' E 028°39'0 0.0
2018-Mar-21 20:00N 44°07' E 028°39'0 0.0
2018-Mar-21 19:30N 44°07' E 028°39'0 0.0
2018-Mar-21 19:00N 44°07' E 028°39'0 0.0
2018-Mar-21 18:30N 44°07' E 028°39'0 0.0
2018-Mar-21 18:00N 44°07' E 028°39'0 0.0
2018-Mar-21 17:30N 44°07' E 028°39'0 0.0
2018-Mar-21 17:00N 44°07' E 028°39'0 0.0
2018-Mar-21 16:30N 44°07' E 028°39'0 0.0
2018-Mar-21 16:00N 44°07' E 028°39'0 0.0
2018-Mar-21 15:30N 44°07' E 028°39'0 0.0
2018-Mar-21 15:00N 44°07' E 028°39'0 0.0
2018-Mar-21 14:31N 44°07' E 028°39'0 0.0
2018-Mar-21 14:00N 44°07' E 028°39'0 0.0
2018-Mar-21 13:30N 44°07' E 028°39'0 0.0
2018-Mar-21 13:00N 44°07' E 028°39'0 0.0
2018-Mar-21 12:30N 44°07' E 028°39'0 0.0
2018-Mar-21 12:00N 44°07' E 028°39'0 0.0
2018-Mar-21 11:30N 44°07' E 028°39'0 0.0
2018-Mar-21 11:00N 44°07' E 028°39'0 0.0
2018-Mar-21 10:30N 44°07' E 028°39'0 0.0
2018-Mar-21 10:01N 44°07' E 028°39'0 0.0
2018-Mar-21 09:30N 44°07' E 028°39'0 0.0
2018-Mar-21 09:00N 44°07' E 028°39'0 0.0
2018-Mar-21 08:30N 44°07' E 028°39'0 0.0
2018-Mar-21 08:00N 44°07' E 028°39'0 0.0
2018-Mar-21 07:30N 44°07' E 028°39'0 0.0
2018-Mar-21 07:00N 44°07' E 028°39'0 0.0
2018-Mar-21 06:30N 44°07' E 028°39'0 0.0
2018-Mar-21 06:01N 44°07' E 028°39'0 0.0
2018-Mar-21 05:30N 44°07' E 028°39'0 0.0
2018-Mar-21 05:00N 44°07' E 028°39'0 0.0
2018-Mar-21 04:30N 44°07' E 028°39'0 0.0
2018-Mar-21 04:00N 44°07' E 028°39'0 0.0
2018-Mar-21 03:30N 44°07' E 028°39'0 0.0
2018-Mar-21 03:00N 44°07' E 028°39'0 0.0
2018-Mar-21 02:30N 44°07' E 028°39'0 0.0
2018-Mar-21 02:00N 44°07' E 028°39'0 0.0
2018-Mar-21 01:30N 44°07' E 028°39'0 0.0
2018-Mar-21 01:00N 44°07' E 028°39'0 0.0
2018-Mar-21 00:31N 44°07' E 028°39'0 0.0
2018-Mar-21 00:00N 44°07' E 028°39'0 0.0
2018-Mar-20 23:31N 44°07' E 028°39'  

Dump ship's entire track history